x

Half Moon Bay - 24nm Ssw Of San Francisco, Ca (46012) Wave Buoy

8:50pm - Fri 23rd Feb 2018 All times are PST. -8 hours from GMT.

  • Sig Wave height 8.2ft
  • Swell Direction
  • Peak Period 16s
  • Average Period 7s
  • Wind
    20mph, 22mph gusts
  • Sea Temp 52°f
  • Air Temp 49°f
  • Sea Pressure 1028.9mb
  • Half Moon Bay - 24nm Ssw Of San Francisco, Ca
  • Half Moon Bay - 24nm Ssw Of San Francisco, Ca

More Historic Weather Station data

Upgrade to MSW Pro to gain access to the past 30 days of data for over 8000 Wavebouys and Weather Stations around the globe.

Join

Comparision Forecast

View Surf forecast
   
Fri 02/23 8:50pm 8ft 16s 7s 20 22 mph 1028.9mb 52f 49f
7:50pm 9ft 16s 7s 18 22 mph 1029mb 52f 49f
6:50pm 8.5ft 16s 7s 18 20 mph 1028.7mb 52f 49f
5:50pm 8ft 10s 7s 18 20 mph 1028.4mb 52f 49f
4:50pm 9ft 16s 8s 18 20 mph 1028.3mb 52f 48f
3:50pm 8ft 9s 7s 18 20 mph 1028.5mb 52f 48f
2:50pm 9ft 16s 8s 13 18 mph 1028.5mb 52f 47f
1:50pm 9.5ft 10s 8s 11 13 mph 1028.5mb 52f 47f
12:50pm 9.5ft 16s 8s 13 18 mph 1029mb 52f 46f
11:50am 10ft 11s 7s 11 16 mph 1029.3mb 52f 46f
10:50am 10.5ft 11s 7s 18 22 mph 1029.2mb 52f 46f
9:50am 11ft 9s 8s 20 25 mph 1028.9mb 52f 46f
8:50am 11ft 11s 8s 22 27 mph 1028.3mb 52f 46f
7:50am 11ft 10s 7s 22 29 mph 1027.5mb 52f 46f
6:50am 12ft 11s 8s 22 29 mph 1026.4mb 52f 46f
5:50am 11.5ft 11s 7s 25 34 mph 1025.6mb 52f 46f
4:50am 12ft 9s 7s 29 38 mph 1025mb 52f 46f
3:50am 11ft 9s 7s 31 38 mph 1024.4mb 52f 47f
2:50am 12ft 8s 7s 31 38 mph 1024.4mb 52f 47f
1:50am 13ft 10s  -  31 38 mph 1024.4mb 52f 48f
12:50am 12ft 10s 7s 31 43 mph 1024.3mb 52f 48f
Thu 02/22 11:50pm 11.5ft 8s 7s 29 36 mph 1024.4mb 52f 48f
10:50pm 12.5ft 9s 7s 31 38 mph 1024.1mb 52f 48f
9:50pm 12ft 8s 7s 34 40 mph 1023.8mb 52f 49f
8:50pm 12ft 8s 7s 31 40 mph 1023.3mb 52f 49f
7:50pm 10.5ft 8s 7s 31 38 mph 1022.9mb 52f 49f
6:50pm 9ft 8s 6s 31 36 mph 1022.4mb 52f 49f
5:50pm 8.5ft 7s 6s 29 36 mph 1022.2mb 52f 49f
4:50pm 8.5ft 7s 6s 25 29 mph 1022.6mb 53f 49f
3:50pm 8ft 13s 6s 27 31 mph 1022.8mb 53f 49f
2:50pm 7.5ft 9s 6s 25 27 mph 1023mb 53f 50f
1:50pm 7ft 9s 7s 20 25 mph 1023.8mb 53f 50f
12:50pm 7.5ft 9s 7s 20 25 mph 1024.6mb 53f 48f
11:50am 8ft 8s 7s 18 22 mph 1025.3mb 53f 50f
10:50am 9.5ft 8s 7s 16 20 mph 1025.4mb 53f 49f
9:50am 10ft 8s 7s 20 25 mph 1025mb 53f 49f
8:50am 10ft 9s 7s 25 31 mph 1024.6mb 53f 49f
7:50am 9.5ft 8s 7s 27 36 mph 1023.8mb 53f 49f
6:50am 8ft 14s 6s 25 31 mph 1023.2mb 53f 48f
5:50am 8ft 9s 6s 22 27 mph 1022.9mb 53f 49f
4:50am 7ft 14s 6s 22 29 mph 1022.6mb 53f 49f
3:50am 6.5ft 14s 6s 20 25 mph 1022.6mb 53f 49f
2:50am 6ft 14s 7s 22 27 mph 1022.4mb 53f 50f
1:50am 6ft 14s 7s 18 22 mph 1022.8mb 53f 50f
12:50am 5.5ft 15s 6s 13 18 mph 1022.8mb 53f 50f
Wed 02/21 11:50pm 6.5ft 15s 7s 16 20 mph 1022.8mb 53f 50f
10:50pm 6ft 15s 8s 16 20 mph 1023.1mb 53f 50f
9:50pm 5.5ft 14s 7s 13 18 mph 1022.7mb 53f 50f
8:50pm 6ft 9s 7s 13 18 mph 1022.5mb 53f 50f
7:50pm 5.5ft 15s 8s 16 16 mph 1022.3mb 53f 50f
6:50pm 6ft 15s 9s 13 18 mph 1022.3mb 53f 50f
5:50pm 5.5ft 15s 9s 11 13 mph 1022mb 54f 50f
4:50pm 5ft 15s 9s 7 9 mph 1021.6mb 54f 50f
3:50pm 4.5ft 15s 9s 7 7 mph 1021.9mb 54f 50f
2:50pm 4.5ft 15s 9s 2 4 mph 1022.2mb 54f 50f
1:50pm 4.5ft 15s 9s 4 7 mph 1022.2mb 54f 50f
12:50pm 4.5ft 15s 9s  -  2 mph 1022.6mb 53f 50f
11:50am 5ft 15s 9s 4 7 mph 1022.8mb 53f 49f
10:50am 4.5ft 16s 9s 7 9 mph 1022.8mb 53f 49f
9:50am 5ft 16s 9s 7 11 mph 1022.4mb 53f 49f
8:50am 5ft 15s 9s 7 11 mph 1022mb 53f 49f
7:50am 5ft 16s 8s 11 13 mph 1021.7mb 53f 48f
6:50am 5ft 16s 8s 11 13 mph 1021.3mb 53f 48f
5:50am 5ft 16s 8s 4 4 mph 1021.1mb 53f 49f
4:50am 5ft 16s 8s 2 4 mph 1020.8mb 53f 49f
3:50am 6ft 16s 9s 7 9 mph 1020.5mb 53f 49f
2:50am 5ft 16s 8s 16 18 mph 1020.5mb 53f 49f
1:50am 5.5ft 16s 8s 7 9 mph 1021.3mb 53f 50f
12:50am 5ft 16s 7s 2 4 mph 1021.6mb 53f 50f
Tue 02/20 11:50pm 5.5ft 17s 8s 4 9 mph 1022.1mb 53f 50f
10:50pm 5ft 17s 7s 9 11 mph 1022.4mb 53f 50f
9:50pm 5.5ft 17s 7s 9 11 mph 1022.6mb 53f 50f
8:50pm 6ft 17s 7s 11 13 mph 1022.8mb 53f 50f
7:50pm 6ft 11s 6s 13 16 mph 1022.9mb 53f 49f
6:50pm 6.5ft 17s 7s 16 18 mph 1022.8mb 53f 49f
5:50pm 6.5ft 17s 7s 16 22 mph 1022.6mb 53f 49f
4:50pm 7ft 17s 7s 18 22 mph 1022.4mb 53f 49f
3:50pm 7ft 11s 7s 18 22 mph 1022.6mb 53f 48f
2:50pm 8ft 12s 7s 18 22 mph 1022.8mb 53f 48f
1:50pm 7ft 12s 7s 20 25 mph 1022.9mb 53f 47f
12:50pm 8ft 11s 7s 18 22 mph 1023.3mb 53f 47f
11:50am 8ft 10s 7s 16 20 mph 1023.7mb 53f 46f
10:50am 8ft 12s 7s 18 22 mph 1024mb 53f 46f
9:50am 8ft 11s 7s 18 22 mph 1023.8mb 53f 46f
8:50am 9.5ft 12s 7s 22 27 mph 1023.8mb 53f 47f
7:50am 9ft 11s 7s 22 27 mph 1023.3mb 53f 46f
6:50am 10.5ft 11s 7s 22 25 mph 1023mb 53f 47f